Time;durP1;ratioP1;P1;durP2;ratioP2;P2;SDS_P1;SDS_P2;PMS_P1;PMS_P2;Temp;Humidity;BMP_temperature;BMP_pressure;BME280_temperature;BME280_humidity;BME280_pressure;Samples;Min_cycle;Max_cycle;Signal;HPM_P1;HPM_P2
2023/06/24 00:00:56;;;;;;;17.10;8.73;;;;;;;16.65;100.00;102051.22;5046902;28;20120;-71
2023/06/24 00:03:23;;;;;;;18.58;8.15;;;;;;;16.60;100.00;102054.53;5034681;28;20052;-68
2023/06/24 00:05:50;;;;;;;19.33;9.05;;;;;;;16.62;100.00;102056.91;5051927;28;20049;-72
2023/06/24 00:08:22;;;;;;;15.73;7.75;;;;;;;16.61;100.00;102053.31;5047223;28;20057;-70
2023/06/24 00:10:50;;;;;;;16.00;8.70;;;;;;;16.57;100.00;102052.59;5038366;28;20041;-72
2023/06/24 00:13:17;;;;;;;24.00;9.23;;;;;;;16.55;100.00;102057.84;5033987;28;20053;-71
2023/06/24 00:15:44;;;;;;;15.70;8.35;;;;;;;16.55;100.00;102054.25;5038037;28;20053;-75
2023/06/24 00:18:10;;;;;;;16.27;9.15;;;;;;;16.52;100.00;102060.69;5046657;28;20049;-71
2023/06/24 00:20:38;;;;;;;18.35;9.70;;;;;;;16.46;100.00;102053.97;5045143;28;20045;-71
2023/06/24 00:23:05;;;;;;;18.80;10.52;;;;;;;16.42;100.00;102051.25;5038991;28;20130;-72
2023/06/24 00:25:32;;;;;;;19.70;10.30;;;;;;;16.38;100.00;102053.31;5042899;28;20132;-71
2023/06/24 00:27:59;;;;;;;15.55;9.10;;;;;;;16.34;100.00;102058.19;5048904;28;20107;-72
2023/06/24 00:30:27;;;;;;;16.52;9.45;;;;;;;16.30;100.00;102060.25;5050000;28;20056;-71
2023/06/24 00:32:53;;;;;;;20.60;9.93;;;;;;;16.28;100.00;102059.91;5039536;28;20080;-71
2023/06/24 00:35:20;;;;;;;19.90;9.48;;;;;;;16.27;100.00;102052.69;5050228;28;20060;-70
2023/06/24 00:37:47;;;;;;;25.80;9.38;;;;;;;16.30;100.00;102056.66;5044017;28;20271;-73
2023/06/24 00:40:16;;;;;;;17.98;9.18;;;;;;;16.24;100.00;102047.09;5048923;28;20045;-71
2023/06/24 00:42:44;;;;;;;20.92;9.38;;;;;;;16.21;100.00;102043.16;5042201;28;20045;-71
2023/06/24 00:45:12;;;;;;;17.52;9.45;;;;;;;16.17;100.00;102056.41;5045937;28;20518;-69
2023/06/24 00:47:39;;;;;;;17.10;9.93;;;;;;;16.13;100.00;102046.47;5048249;28;20072;-72
2023/06/24 00:50:06;;;;;;;17.38;9.25;;;;;;;16.09;100.00;102049.31;5036912;28;20076;-70
2023/06/24 00:52:33;;;;;;;19.02;9.40;;;;;;;16.04;100.00;102058.19;5040353;28;20049;-71
2023/06/24 00:55:01;;;;;;;20.77;10.10;;;;;;;16.01;100.00;102053.47;5048889;28;20052;-73
2023/06/24 00:57:29;;;;;;;19.58;9.80;;;;;;;15.98;100.00;102057.13;5040734;28;20057;-70
2023/06/24 00:59:56;;;;;;;18.48;10.02;;;;;;;15.90;100.00;102054.84;5044455;28;20045;-71
2023/06/24 01:02:27;;;;;;;18.13;9.73;;;;;;;15.90;100.00;102061.22;5043870;28;20042;-72
2023/06/24 01:04:56;;;;;;;17.27;9.07;;;;;;;15.90;100.00;102060.44;5043917;28;20114;-73
2023/06/24 01:07:24;;;;;;;18.58;9.00;;;;;;;15.95;100.00;102059.94;5042067;28;20119;-73
2023/06/24 01:09:50;;;;;;;17.55;8.50;;;;;;;15.92;100.00;102058.78;5046484;28;20053;-71
2023/06/24 01:12:17;;;;;;;21.23;9.68;;;;;;;15.90;100.00;102055.59;5048811;28;20418;-71
2023/06/24 01:14:43;;;;;;;17.20;8.80;;;;;;;15.88;100.00;102051.66;5040469;28;20057;-73
2023/06/24 01:17:19;;;;;;;21.85;9.57;;;;;;;15.84;100.00;102048.91;5040381;28;20084;-68
2023/06/24 01:20:13;;;;;;;18.40;9.88;;;;;;;15.81;100.00;102043.34;5040822;28;20511;-70
2023/06/24 01:23:06;;;;;;;18.30;9.73;;;;;;;15.74;100.00;102040.63;5038260;28;20060;-71
2023/06/24 01:25:54;;;;;;;17.48;8.68;;;;;;;15.74;100.00;102041.44;5043838;28;20044;-70
2023/06/24 01:28:41;;;;;;;19.35;9.68;;;;;;;15.72;100.00;102032.63;5047071;28;20128;-72
2023/06/24 01:31:26;;;;;;;19.15;9.20;;;;;;;15.75;100.00;102036.59;5049570;28;20064;-71
2023/06/24 01:34:06;;;;;;;17.33;9.07;;;;;;;15.77;100.00;102034.19;5048234;28;20056;-72
2023/06/24 01:36:36;;;;;;;19.75;9.85;;;;;;;15.74;100.00;102029.41;5055778;28;20088;-71
2023/06/24 01:39:07;;;;;;;19.77;10.38;;;;;;;15.72;100.00;102032.63;5051134;28;20542;-71
2023/06/24 01:41:43;;;;;;;18.42;9.73;;;;;;;15.63;100.00;102023.94;5045604;28;20053;-72
2023/06/24 01:44:12;;;;;;;18.70;9.30;;;;;;;15.65;100.00;102034.72;5034706;28;20060;-71
2023/06/24 01:46:41;;;;;;;20.88;11.05;;;;;;;15.62;100.00;102036.38;5040235;28;20092;-72
2023/06/24 01:49:11;;;;;;;20.95;10.43;;;;;;;15.59;100.00;102037.22;5040723;28;20061;-70
2023/06/24 01:51:41;;;;;;;19.83;10.98;;;;;;;15.61;100.00;102036.78;5042838;28;20088;-67
2023/06/24 01:54:13;;;;;;;19.75;9.75;;;;;;;15.58;100.00;102041.25;5042073;28;20049;-71
2023/06/24 01:56:43;;;;;;;19.80;10.93;;;;;;;15.52;100.00;102044.94;5045812;28;20083;-71
2023/06/24 01:59:11;;;;;;;19.08;10.35;;;;;;;15.48;100.00;102036.56;5047296;28;20152;-71
2023/06/24 02:01:39;;;;;;;20.80;10.38;;;;;;;15.48;100.00;102033.75;5042409;28;20045;-71
2023/06/24 02:04:08;;;;;;;19.95;10.07;;;;;;;15.47;100.00;102032.19;5045475;28;20049;-72
2023/06/24 02:06:35;;;;;;;19.88;10.23;;;;;;;15.45;100.00;102026.19;5036008;28;20155;-73
2023/06/24 02:09:04;;;;;;;19.77;10.50;;;;;;;15.44;100.00;102033.00;5042726;28;20202;-70
2023/06/24 02:11:33;;;;;;;20.50;10.73;;;;;;;15.41;100.00;102031.06;5046262;28;20128;-70
2023/06/24 02:14:02;;;;;;;18.65;9.75;;;;;;;15.41;100.00;102033.84;5047194;28;20198;-72
2023/06/24 02:16:30;;;;;;;19.40;9.38;;;;;;;15.40;100.00;102037.88;5050480;28;20729;-72
2023/06/24 02:18:57;;;;;;;20.02;9.48;;;;;;;15.38;100.00;102034.69;5044433;28;20087;-70
2023/06/24 02:21:25;;;;;;;18.23;9.68;;;;;;;15.36;100.00;102036.31;5043970;28;20124;-71
2023/06/24 02:23:53;;;;;;;18.85;10.13;;;;;;;15.34;100.00;102033.09;5039288;28;20128;-71
2023/06/24 02:26:21;;;;;;;22.80;10.98;;;;;;;15.32;100.00;102041.94;5037268;28;20049;-72
2023/06/24 02:28:49;;;;;;;22.50;10.00;;;;;;;15.32;100.00;102030.72;5047323;28;20431;-72
2023/06/24 02:31:16;;;;;;;17.70;10.10;;;;;;;15.30;100.00;102038.78;5048065;28;20092;-73
2023/06/24 02:33:43;;;;;;;20.02;10.60;;;;;;;15.29;100.00;102036.38;5047316;28;20604;-71
2023/06/24 02:36:11;;;;;;;20.23;10.15;;;;;;;15.28;100.00;102038.38;5043466;28;20053;-74
2023/06/24 02:38:37;;;;;;;18.05;9.23;;;;;;;15.29;100.00;102031.56;5042624;28;20509;-71
2023/06/24 02:41:04;;;;;;;20.35;10.60;;;;;;;15.27;100.00;102028.41;5046955;28;20511;-71
2023/06/24 02:43:32;;;;;;;17.92;9.63;;;;;;;15.28;100.00;102029.97;5047315;28;20049;-70
2023/06/24 02:46:02;;;;;;;19.00;9.43;;;;;;;15.24;100.00;102029.22;5039433;28;20457;-71
2023/06/24 02:48:30;;;;;;;22.48;10.20;;;;;;;15.23;100.00;102027.66;5042807;28;20049;-71
2023/06/24 02:50:59;;;;;;;20.13;9.70;;;;;;;15.23;100.00;102036.06;5047088;28;20491;-73
2023/06/24 02:53:27;;;;;;;19.50;9.63;;;;;;;15.22;100.00;102036.47;5048124;28;20087;-71
2023/06/24 02:55:55;;;;;;;21.15;10.05;;;;;;;15.22;100.00;102036.47;5030622;28;20130;-72
2023/06/24 02:58:24;;;;;;;21.88;9.98;;;;;;;15.19;100.00;102035.28;5043016;28;20057;-71
2023/06/24 03:00:51;;;;;;;20.35;9.73;;;;;;;15.23;100.00;102036.06;5045529;28;20080;-71
2023/06/24 03:03:17;;;;;;;19.65;9.73;;;;;;;15.20;100.00;102036.88;5046908;28;20077;-70
2023/06/24 03:05:44;;;;;;;17.45;8.82;;;;;;;15.19;100.00;102038.06;5039396;28;20053;-73
2023/06/24 03:08:11;;;;;;;23.77;9.85;;;;;;;15.19;100.00;102042.91;5045797;28;20529;-72
2023/06/24 03:10:39;;;;;;;21.55;10.23;;;;;;;15.17;100.00;102039.72;5045368;28;20110;-72
2023/06/24 03:13:05;;;;;;;21.60;11.60;;;;;;;15.15;100.00;102042.94;5044899;28;20499;-72
2023/06/24 03:15:32;;;;;;;19.63;10.10;;;;;;;15.14;100.00;102043.34;5048079;28;20571;-73
2023/06/24 03:17:59;;;;;;;19.88;10.52;;;;;;;15.16;100.00;102043.72;5047221;28;20056;-72
2023/06/24 03:20:26;;;;;;;20.20;10.32;;;;;;;15.14;100.00;102041.34;5046250;28;20076;-71
2023/06/24 03:22:54;;;;;;;20.42;11.27;;;;;;;15.10;100.00;102046.19;5050564;28;20457;-72
2023/06/24 03:25:20;;;;;;;20.75;11.02;;;;;;;15.08;100.00;102039.44;5051616;28;20110;-71
2023/06/24 03:27:47;;;;;;;20.08;10.20;;;;;;;15.08;100.00;102053.44;5047564;28;20102;-72
2023/06/24 03:30:14;;;;;;;20.88;9.45;;;;;;;15.10;100.00;102049.00;5032869;28;20053;-72
2023/06/24 03:32:46;;;;;;;19.73;9.95;;;;;;;15.11;100.00;102055.38;5046420;28;20061;-71
2023/06/24 03:35:13;;;;;;;19.90;10.38;;;;;;;15.10;100.00;102048.19;5045873;28;20052;-73
2023/06/24 03:37:40;;;;;;;18.90;10.13;;;;;;;15.13;100.00;102044.56;5046973;28;20080;-72
2023/06/24 03:40:08;;;;;;;18.83;10.02;;;;;;;15.11;100.00;102039.38;5043276;28;20053;-72
2023/06/24 03:42:35;;;;;;;21.13;10.75;;;;;;;15.09;100.00;102038.22;5046465;28;20045;-75
2023/06/24 03:45:05;;;;;;;18.58;9.52;;;;;;;15.01;100.00;102045.88;5041111;28;20440;-74
2023/06/24 03:47:31;;;;;;;19.27;10.25;;;;;;;14.98;100.00;102057.16;5057953;28;20044;-72
2023/06/24 03:49:58;;;;;;;20.52;9.98;;;;;;;14.87;100.00;102054.44;5039433;28;20053;-71
2023/06/24 03:52:25;;;;;;;20.52;10.98;;;;;;;14.90;100.00;102060.03;5045001;28;20087;-74
2023/06/24 03:54:51;;;;;;;19.73;10.93;;;;;;;14.98;100.00;102069.13;5039381;28;20631;-72
2023/06/24 03:57:18;;;;;;;19.60;10.80;;;;;;;15.05;100.00;102065.47;5045597;28;20099;-71
2023/06/24 03:59:44;;;;;;;20.55;10.98;;;;;;;15.10;100.00;102060.22;5028803;28;20561;-72
2023/06/24 04:02:13;;;;;;;20.15;10.93;;;;;;;15.19;100.00;102065.31;5036543;28;20104;-70
2023/06/24 04:04:40;;;;;;;20.17;10.27;;;;;;;15.21;100.00;102060.88;5049273;28;20061;-73
2023/06/24 04:07:06;;;;;;;19.58;10.70;;;;;;;15.28;100.00;102072.00;5043941;28;20580;-73
2023/06/24 04:09:35;;;;;;;19.58;10.98;;;;;;;15.33;100.00;102077.16;5048484;28;20060;-73
2023/06/24 04:12:02;;;;;;;20.05;10.25;;;;;;;15.36;100.00;102073.53;5044602;28;20052;-71
2023/06/24 04:14:28;;;;;;;19.88;10.60;;;;;;;15.40;100.00;102071.50;5039432;28;20075;-73
2023/06/24 04:16:55;;;;;;;19.13;10.20;;;;;;;15.46;100.00;102080.25;5042831;28;20136;-72
2023/06/24 04:19:21;;;;;;;19.27;9.90;;;;;;;15.50;100.00;102069.78;5045715;28;20077;-71
2023/06/24 04:21:48;;;;;;;23.88;10.52;;;;;;;15.56;100.00;102068.09;5050191;28;20067;-71
2023/06/24 04:24:14;;;;;;;20.27;10.50;;;;;;;15.61;100.00;102065.63;5049401;28;20142;-72
2023/06/24 04:26:41;;;;;;;19.33;10.43;;;;;;;15.67;100.00;102068.75;5049783;28;20056;-73
2023/06/24 04:29:07;;;;;;;19.70;11.35;;;;;;;15.74;100.00;102071.47;5048640;28;20049;-73
2023/06/24 04:31:34;;;;;;;23.80;10.82;;;;;;;15.79;100.00;102071.00;5046637;28;20537;-72
2023/06/24 04:34:01;;;;;;;20.67;11.30;;;;;;;15.88;100.00;102063.66;5045349;28;20052;-72
2023/06/24 04:36:27;;;;;;;19.15;11.23;;;;;;;15.93;100.00;102068.78;5049449;28;20053;-74
2023/06/24 04:38:54;;;;;;;19.80;10.40;;;;;;;15.98;100.00;102073.94;5049554;28;20072;-71
2023/06/24 04:41:20;;;;;;;20.33;11.55;;;;;;;16.01;100.00;102067.50;5057918;28;20067;-69
2023/06/24 04:43:47;;;;;;;21.52;10.90;;;;;;;16.05;100.00;102062.63;5044368;28;20138;-70
2023/06/24 04:46:13;;;;;;;21.17;10.73;;;;;;;16.10;100.00;102070.53;5043919;28;20178;-70
2023/06/24 04:48:40;;;;;;;21.65;11.45;;;;;;;16.15;100.00;102066.47;5047319;28;20114;-71
2023/06/24 04:51:07;;;;;;;17.58;9.35;;;;;;;16.23;100.00;102073.56;5050230;28;20478;-70
2023/06/24 04:53:33;;;;;;;18.80;9.63;;;;;;;16.30;100.00;102079.91;5049204;28;20123;-72
2023/06/24 04:56:00;;;;;;;23.45;10.77;;;;;;;16.37;100.00;102076.97;5049317;28;20053;-71
2023/06/24 04:58:27;;;;;;;20.40;9.15;;;;;;;16.42;100.00;102082.13;5047506;28;20049;-70
2023/06/24 05:00:53;;;;;;;22.08;11.40;;;;;;;16.47;100.00;102081.63;5050618;28;20064;-69
2023/06/24 05:03:20;;;;;;;24.55;11.00;;;;;;;16.53;100.00;102077.13;5047397;28;20049;-72
2023/06/24 05:05:47;;;;;;;22.25;11.57;;;;;;;16.60;100.00;102076.19;5049672;28;20507;-70
2023/06/24 05:08:13;;;;;;;22.88;11.25;;;;;;;16.66;100.00;102077.31;5049035;28;20049;-71
2023/06/24 05:10:40;;;;;;;21.33;10.85;;;;;;;16.70;100.00;102072.41;5047860;28;20049;-73
2023/06/24 05:13:06;;;;;;;21.42;10.88;;;;;;;16.72;100.00;102081.22;5049277;28;20128;-71
2023/06/24 05:15:33;;;;;;;19.90;10.93;;;;;;;16.72;100.00;102064.38;5047127;28;20124;-71
2023/06/24 05:18:00;;;;;;;20.50;11.38;;;;;;;16.76;100.00;102067.91;5038019;28;20044;-74
2023/06/24 05:20:26;;;;;;;21.50;11.43;;;;;;;16.81;100.00;102068.22;5029081;28;20056;-73
2023/06/24 05:22:54;;;;;;;21.08;10.70;;;;;;;16.87;100.00;102069.31;5041744;28;20041;-71
2023/06/24 05:25:20;;;;;;;19.85;10.35;;;;;;;16.96;100.00;102068.75;5043055;28;20135;-71
2023/06/24 05:27:47;;;;;;;22.52;11.57;;;;;;;17.08;100.00;102071.72;5046924;28;20072;-73
2023/06/24 05:30:14;;;;;;;20.92;11.20;;;;;;;17.21;100.00;102072.72;5028098;28;20057;-72
2023/06/24 05:32:41;;;;;;;21.05;11.20;;;;;;;17.35;100.00;102066.81;5035046;28;20049;-71
2023/06/24 05:35:08;;;;;;;21.05;10.82;;;;;;;17.44;100.00;102060.59;5040059;28;20064;-71
2023/06/24 05:37:34;;;;;;;21.13;11.07;;;;;;;17.49;100.00;102064.94;5031540;28;20084;-71
2023/06/24 05:40:02;;;;;;;19.85;10.50;;;;;;;17.63;100.00;102064.63;5032960;28;20135;-69
2023/06/24 05:42:28;;;;;;;18.23;10.18;;;;;;;17.68;100.00;102062.09;5037385;28;20045;-72
2023/06/24 05:44:55;;;;;;;20.67;10.02;;;;;;;17.68;100.00;102056.47;5036865;28;20049;-71
2023/06/24 05:47:22;;;;;;;20.42;9.93;;;;;;;17.82;100.00;102061.78;5044377;28;20123;-70
2023/06/24 05:49:48;;;;;;;21.85;9.80;;;;;;;17.96;100.00;102066.34;5040986;28;20048;-70
2023/06/24 05:52:15;;;;;;;20.55;9.75;;;;;;;18.00;100.00;102061.44;5034797;28;20100;-72
2023/06/24 05:54:41;;;;;;;16.45;9.07;;;;;;;18.10;100.00;102058.38;5032449;28;20523;-70
2023/06/24 05:57:10;;;;;;;17.77;8.13;;;;;;;18.09;100.00;102056.00;5035175;28;20096;-70
2023/06/24 05:59:36;;;;;;;18.25;8.68;;;;;;;18.08;100.00;102055.19;5045433;28;20056;-70
2023/06/24 06:02:03;;;;;;;17.15;8.35;;;;;;;18.26;100.00;102052.75;5045360;28;20136;-71
2023/06/24 06:04:29;;;;;;;18.25;10.02;;;;;;;18.47;100.00;102057.09;5045422;28;20068;-71
2023/06/24 06:06:56;;;;;;;17.58;8.98;;;;;;;18.58;100.00;102057.59;5032802;28;20045;-68
2023/06/24 06:09:23;;;;;;;19.45;9.45;;;;;;;18.61;100.00;102062.34;5027333;28;20046;-70
2023/06/24 06:11:49;;;;;;;21.20;9.93;;;;;;;18.76;100.00;102070.03;5034012;28;20053;-70
2023/06/24 06:14:16;;;;;;;16.92;9.48;;;;;;;18.87;100.00;102058.50;5038431;28;20045;-68
2023/06/24 06:16:42;;;;;;;16.98;9.27;;;;;;;18.96;100.00;102061.44;5047846;28;20046;-69
2023/06/24 06:19:09;;;;;;;18.42;9.60;;;;;;;18.93;100.00;102063.13;5036704;28;20111;-70
2023/06/24 06:21:36;;;;;;;17.75;9.32;;;;;;;19.06;100.00;102066.00;5047036;28;20076;-69
2023/06/24 06:24:04;;;;;;;20.02;10.15;;;;;;;19.13;100.00;102060.97;5031726;28;20060;-69
2023/06/24 06:26:30;;;;;;;17.58;8.98;;;;;;;19.22;100.00;102063.97;5044618;28;20061;-71
2023/06/24 06:28:57;;;;;;;19.50;10.23;;;;;;;19.41;100.00;102065.81;5042951;28;20450;-71
2023/06/24 06:31:25;;;;;;;18.42;9.32;;;;;;;19.34;100.00;102068.06;5043642;28;20080;-69
2023/06/24 06:33:52;;;;;;;20.35;8.63;;;;;;;19.37;100.00;102069.97;5033314;28;20045;-71
2023/06/24 06:36:19;;;;;;;19.30;10.52;;;;;;;19.53;100.00;102062.28;5040647;28;20218;-73
2023/06/24 06:38:45;;;;;;;20.73;9.60;;;;;;;19.52;100.00;102068.38;5039978;28;20060;-71
2023/06/24 06:41:12;;;;;;;17.75;10.57;;;;;;;19.55;100.00;102075.94;5035380;28;20051;-71
2023/06/24 06:43:38;;;;;;;17.77;9.90;;;;;;;19.51;100.00;102069.63;5038820;28;20103;-68
2023/06/24 06:46:05;;;;;;;17.52;9.27;;;;;;;19.59;100.00;102068.16;5041817;28;20573;-68
2023/06/24 06:48:32;;;;;;;20.20;9.45;;;;;;;19.59;100.00;102073.81;5047659;28;20124;-69
2023/06/24 06:50:58;;;;;;;15.48;6.45;;;;;;;19.54;100.00;102074.34;5046877;28;20147;-68
2023/06/24 06:53:25;;;;;;;19.40;10.35;;;;;;;19.62;100.00;102070.88;5048739;28;20080;-70
2023/06/24 06:55:51;;;;;;;18.08;8.73;;;;;;;19.58;100.00;102075.06;5038967;28;20462;-69
2023/06/24 06:58:18;;;;;;;18.08;10.50;;;;;;;19.70;100.00;102066.63;5043277;28;20582;-68
2023/06/24 07:00:44;;;;;;;17.77;8.73;;;;;;;19.78;100.00;102075.66;5047850;28;20052;-69
2023/06/24 07:03:11;;;;;;;17.65;8.00;;;;;;;19.82;100.00;102081.19;5047158;28;20044;-69
2023/06/24 07:05:37;;;;;;;18.20;8.50;;;;;;;19.74;100.00;102078.56;5036807;28;20045;-68
2023/06/24 07:08:06;;;;;;;17.38;9.15;;;;;;;19.78;100.00;102076.44;5029697;28;20132;-68
2023/06/24 07:10:32;;;;;;;18.08;9.63;;;;;;;19.93;100.00;102079.63;5044092;28;20785;-68
2023/06/24 07:12:59;;;;;;;19.13;9.38;;;;;;;20.03;100.00;102083.34;5038529;28;20041;-69
2023/06/24 07:15:26;;;;;;;18.75;10.98;;;;;;;20.09;100.00;102079.53;5040911;28;20117;-70
2023/06/24 07:17:53;;;;;;;18.05;9.02;;;;;;;20.20;100.00;102084.81;5036927;28;20061;-68
2023/06/24 07:20:21;;;;;;;23.83;13.13;;;;;;;20.36;100.00;102082.72;5036869;28;20493;-69
2023/06/24 07:22:48;;;;;;;23.77;11.00;;;;;;;20.40;100.00;102083.41;5031718;28;20511;-72
2023/06/24 07:25:14;;;;;;;22.20;10.98;;;;;;;20.60;100.00;102086.78;5040717;28;20154;-71
2023/06/24 07:27:41;;;;;;;28.50;10.93;;;;;;;20.64;100.00;102087.44;5044071;28;20048;-70
2023/06/24 07:30:08;;;;;;;19.35;9.70;;;;;;;20.65;100.00;102085.41;5038958;28;20076;-70
2023/06/24 07:32:35;;;;;;;20.30;10.98;;;;;;;20.90;100.00;102080.50;5029436;28;20390;-72
2023/06/24 07:35:03;;;;;;;22.58;11.00;;;;;;;20.99;100.00;102093.94;5034287;28;20084;-71
2023/06/24 07:37:30;;;;;;;23.52;12.13;;;;;;;21.03;100.00;102080.47;5033030;28;20140;-73
2023/06/24 07:39:56;;;;;;;20.48;11.23;;;;;;;21.17;100.00;102086.41;5040940;28;20056;-72
2023/06/24 07:42:23;;;;;;;18.83;9.73;;;;;;;21.13;100.00;102088.56;5027963;28;20136;-71
2023/06/24 07:44:49;;;;;;;23.55;12.20;;;;;;;21.13;100.00;102087.78;5035135;28;20076;-71
2023/06/24 07:47:19;;;;;;;22.95;12.57;;;;;;;21.23;100.00;102090.22;5039435;28;20135;-72
2023/06/24 07:49:46;;;;;;;25.58;12.15;;;;;;;21.12;100.00;102087.00;5030185;28;20463;-71
2023/06/24 07:52:12;;;;;;;13.68;6.82;;;;;;;21.07;100.00;102083.97;5031049;28;20156;-72
2023/06/24 07:54:39;;;;;;;16.77;6.47;;;;;;;21.12;100.00;102086.19;5039396;28;20059;-70
2023/06/24 07:57:05;;;;;;;20.92;10.55;;;;;;;21.30;100.00;102083.53;5044630;28;20048;-70
2023/06/24 07:59:32;;;;;;;23.95;12.07;;;;;;;21.42;100.00;102085.50;5044842;28;20049;-69
2023/06/24 08:01:59;;;;;;;19.80;11.70;;;;;;;21.38;100.00;102084.84;5044634;28;20041;-71
2023/06/24 08:04:25;;;;;;;23.25;13.18;;;;;;;21.44;100.00;102083.78;5043086;28;20084;-69
2023/06/24 08:06:52;;;;;;;23.63;14.55;;;;;;;21.47;100.00;102088.53;5042522;28;20053;-69
2023/06/24 08:09:19;;;;;;;22.65;12.93;;;;;;;21.50;100.00;102084.78;5045758;28;20064;-70
2023/06/24 08:11:46;;;;;;;18.30;10.55;;;;;;;21.50;100.00;102084.78;5043629;28;20053;-69
2023/06/24 08:14:12;;;;;;;19.58;9.00;;;;;;;21.57;100.00;102078.09;5039524;28;20132;-70
2023/06/24 08:16:39;;;;;;;29.50;15.85;;;;;;;21.73;100.00;102089.22;5040530;28;20060;-70
2023/06/24 08:19:05;;;;;;;27.30;16.92;;;;;;;21.74;100.00;102085.16;5049848;28;20127;-69
2023/06/24 08:21:33;;;;;;;13.93;7.40;;;;;;;21.64;100.00;102089.94;5043525;28;20111;-72
2023/06/24 08:24:00;;;;;;;29.00;16.10;;;;;;;21.78;100.00;102086.56;5044862;28;20099;-71
2023/06/24 08:26:26;;;;;;;24.65;15.52;;;;;;;21.96;100.00;102086.69;5041444;28;20049;-67
2023/06/24 08:28:53;;;;;;;24.98;15.18;;;;;;;21.97;100.00;102093.13;5038176;28;20648;-72
2023/06/24 08:31:22;;;;;;;24.73;15.32;;;;;;;22.14;100.00;102080.31;5037609;28;20080;-68
2023/06/24 08:33:52;;;;;;;26.40;17.00;;;;;;;22.31;100.00;102080.88;5036095;28;20046;-69
2023/06/24 08:36:18;;;;;;;23.60;13.38;;;;;;;22.34;100.00;102086.41;5032955;28;20057;-69
2023/06/24 08:38:46;;;;;;;24.95;13.88;;;;;;;22.39;100.00;102085.00;5035455;28;20699;-69
2023/06/24 08:41:12;;;;;;;29.95;14.55;;;;;;;22.36;100.00;102075.41;5032135;28;20423;-71
2023/06/24 08:43:39;;;;;;;16.88;6.40;;;;;;;22.13;100.00;102073.88;5046324;28;20557;-69
2023/06/24 08:46:08;;;;;;;26.67;15.15;;;;;;;22.20;100.00;102075.63;5048572;28;20094;-69
2023/06/24 08:48:39;;;;;;;18.83;9.07;;;;;;;22.24;100.00;102069.81;5040160;28;20081;-70
2023/06/24 08:51:13;;;;;;;12.23;5.93;;;;;;;22.22;100.00;102073.13;5046253;28;20045;-70
2023/06/24 08:53:43;;;;;;;23.75;14.57;;;;;;;22.66;100.00;102071.72;5034144;28;20041;-71
2023/06/24 08:56:10;;;;;;;25.73;14.02;;;;;;;22.87;100.00;102067.97;5045596;28;20163;-69
2023/06/24 08:58:37;;;;;;;21.15;12.45;;;;;;;22.82;100.00;102067.78;5047800;28;20075;-69
2023/06/24 09:01:05;;;;;;;25.02;12.07;;;;;;;22.84;100.00;102068.09;5042198;28;20089;-72
2023/06/24 09:03:32;;;;;;;20.67;9.30;;;;;;;22.87;100.00;102067.97;5048965;28;20072;-70
2023/06/24 09:05:59;;;;;;;17.50;7.00;;;;;;;22.81;100.00;102066.22;5043420;28;20041;-70
2023/06/24 09:08:25;;;;;;;23.63;11.50;;;;;;;23.02;100.00;102059.66;5045516;28;20148;-68
2023/06/24 09:10:56;;;;;;;21.50;11.05;;;;;;;23.16;100.00;102064.69;5044108;28;20048;-67
2023/06/24 09:13:34;;;;;;;10.00;3.92;;;;;;;22.95;100.00;102057.88;5037231;28;20042;-71
2023/06/24 09:16:11;;;;;;;16.55;7.35;;;;;;;23.06;100.00;102069.59;5045997;28;20069;-70
2023/06/24 09:18:38;;;;;;;16.05;8.10;;;;;;;23.24;100.00;102065.94;5045812;28;20103;-72
2023/06/24 09:21:05;;;;;;;14.18;6.18;;;;;;;23.45;100.00;102053.63;5042849;28;20053;-69
2023/06/24 09:23:35;;;;;;;12.80;5.20;;;;;;;23.50;100.00;102053.00;5041533;28;20058;-72
2023/06/24 09:26:02;;;;;;;12.35;4.10;;;;;;;23.30;100.00;102044.19;5049107;28;20060;-76
2023/06/24 09:28:29;;;;;;;15.77;6.13;;;;;;;23.30;100.00;102036.47;5041267;28;20509;-72
2023/06/24 09:31:09;;;;;;;17.80;7.60;;;;;;;23.68;100.00;102041.63;5039753;28;20106;-72
2023/06/24 09:33:39;;;;;;;15.82;7.15;;;;;;;23.75;100.00;102039.25;5046979;28;20080;-71
2023/06/24 09:36:06;;;;;;;22.02;6.90;;;;;;;23.75;100.00;102042.09;5048038;28;20079;-74
2023/06/24 09:38:38;;;;;;;16.80;7.57;;;;;;;23.92;100.00;102042.50;5047001;28;20057;-70
2023/06/24 09:41:05;;;;;;;17.35;6.88;;;;;;;23.93;100.00;102032.72;5056121;28;20407;-72
2023/06/24 09:43:43;;;;;;;13.18;5.05;;;;;;;23.87;100.00;102034.63;5040017;28;20049;-72
2023/06/24 09:46:11;;;;;;;15.88;6.50;;;;;;;23.93;100.00;102029.88;5047889;28;20060;-70
2023/06/24 09:48:38;;;;;;;14.05;5.55;;;;;;;23.85;100.00;102028.63;5040802;28;20095;-70
2023/06/24 09:51:05;;;;;;;12.02;5.60;;;;;;;24.00;100.00;102023.88;5048648;28;20053;-70
2023/06/24 09:53:33;;;;;;;7.93;3.83;;;;;;;23.85;100.00;102034.31;5048074;28;20124;-74
2023/06/24 09:56:02;;;;;;;11.65;5.32;;;;;;;23.91;100.00;102038.09;5039028;28;20080;-74
2023/06/24 09:58:40;;;;;;;16.92;6.00;;;;;;;23.99;100.00;102022.28;5047806;28;20060;-69
2023/06/24 10:01:07;;;;;;;4.25;2.30;;;;;;;23.90;100.00;102034.44;5045460;28;20132;-70
2023/06/24 10:03:36;;;;;;;13.73;4.95;;;;;;;24.08;100.00;102019.41;5054083;28;20044;-70
2023/06/24 10:06:04;;;;;;;9.60;4.13;;;;;;;24.20;100.00;102012.72;5036857;28;20426;-70
2023/06/24 10:08:31;;;;;;;9.48;3.90;;;;;;;24.13;100.00;102015.91;5045562;28;20049;-70
2023/06/24 10:11:02;;;;;;;11.80;4.53;;;;;;;24.29;100.00;102012.69;5049203;28;20045;-70
2023/06/24 10:13:29;;;;;;;10.82;3.53;;;;;;;24.37;100.00;102011.84;5044598;28;20049;-70
2023/06/24 10:15:57;;;;;;;11.13;4.60;;;;;;;24.59;100.00;102014.41;5050641;28;20499;-71
2023/06/24 10:18:36;;;;;;;12.15;4.90;;;;;;;24.77;100.00;102008.56;5034526;28;20084;-70
2023/06/24 10:21:04;;;;;;;6.90;3.40;;;;;;;24.62;100.00;102004.09;5041319;28;20423;-71
2023/06/24 10:23:54;;;;;;;9.90;4.03;;;;;;;24.74;100.00;102003.06;5057150;28;20040;-70
2023/06/24 10:26:28;;;;;;;9.30;4.20;;;;;;;24.80;100.00;101992.59;5037560;28;20044;-72
2023/06/24 10:29:07;;;;;;;11.50;5.70;;;;;;;25.01;100.00;101997.97;5047046;28;20056;-72
2023/06/24 10:31:39;;;;;;;14.07;5.22;;;;;;;25.16;100.00;101995.94;5039938;28;20045;-70
2023/06/24 10:34:18;;;;;;;13.20;5.03;;;;;;;25.27;100.00;101996.13;5046472;28;20592;-72
2023/06/24 10:37:03;;;;;;;11.07;4.22;;;;;;;25.29;100.00;101990.75;5054619;28;20084;-72
2023/06/24 10:39:42;;;;;;;10.27;4.00;;;;;;;25.22;100.00;101988.31;5019961;28;20076;-72
2023/06/24 10:42:27;;;;;;;9.55;4.65;;;;;;;25.21;100.00;101985.94;5036455;28;20140;-73
2023/06/24 10:45:08;;;;;;;8.57;3.85;;;;;;;25.18;100.00;101984.84;5049424;28;20141;-71
2023/06/24 10:47:38;;;;;;;12.75;4.35;;;;;;;25.09;100.00;101979.25;5043127;28;20582;-71
2023/06/24 10:50:06;;;;;;;11.50;4.43;;;;;;;25.34;100.00;101981.53;5038152;28;20230;-72
2023/06/24 10:52:39;;;;;;;12.48;3.00;;;;;;;25.21;100.00;101981.00;5045089;28;20451;-74
2023/06/24 10:55:07;;;;;;;12.35;4.70;;;;;;;25.47;100.00;101976.34;5046605;28;20519;-71
2023/06/24 10:57:33;;;;;;;12.25;5.35;;;;;;;25.54;100.00;101972.31;5033739;28;20049;-71
2023/06/24 11:00:01;;;;;;;10.90;4.38;;;;;;;25.69;100.00;101973.88;5044843;28;20164;-74
2023/06/24 11:02:28;;;;;;;10.30;4.63;;;;;;;25.79;100.00;101975.31;5042431;28;20522;-70
2023/06/24 11:04:57;;;;;;;13.15;4.72;;;;;;;25.82;100.00;101962.94;5048943;28;20052;-73
2023/06/24 11:07:25;;;;;;;10.70;4.68;;;;;;;25.84;100.00;101971.78;5044739;28;20661;-70
2023/06/24 11:09:56;;;;;;;9.75;3.75;;;;;;;25.73;99.11;101971.63;5041260;28;20056;-71
2023/06/24 11:12:25;;;;;;;12.95;4.32;;;;;;;25.91;100.00;101967.72;5032303;28;20053;-70